createdAt,value
2022-12-29T00:01:05.828Z,100105.94
2022-12-29T00:03:34.209Z,100102.72
2022-12-29T00:06:03.816Z,100091.16
2022-12-29T00:08:43.102Z,100086.53
2022-12-29T00:11:18.925Z,100085.00
2022-12-29T00:14:06.912Z,100086.44
2022-12-29T00:16:37.862Z,100080.97
2022-12-29T00:19:27.783Z,100077.66
2022-12-29T00:22:14.521Z,100071.94
2022-12-29T00:25:01.317Z,100073.84
2022-12-29T00:27:52.396Z,100072.63
2022-12-29T00:30:43.610Z,100066.88
2022-12-29T00:33:40.160Z,100060.56
2022-12-29T00:36:40.318Z,100065.53
2022-12-29T00:39:38.699Z,100062.41
2022-12-29T00:42:30.999Z,100066.41
2022-12-29T00:45:00.999Z,100064.56
2022-12-29T00:47:31.043Z,100064.72
2022-12-29T00:50:01.069Z,100061.72
2022-12-29T00:52:31.221Z,100053.94
2022-12-29T00:55:01.242Z,100056.69
2022-12-29T00:57:31.255Z,100058.75
2022-12-29T00:59:59.664Z,100051.19
2022-12-29T01:02:28.243Z,100056.91
2022-12-29T01:04:56.516Z,100058.25
2022-12-29T01:07:24.972Z,100046.03
2022-12-29T01:10:11.553Z,100058.31
2022-12-29T01:12:41.825Z,100037.75
2022-12-29T01:15:15.962Z,100043.41
2022-12-29T01:17:43.798Z,100040.94
2022-12-29T01:20:12.973Z,100041.75
2022-12-29T01:22:40.870Z,100042.56
2022-12-29T01:25:09.489Z,100033.75
2022-12-29T01:27:37.088Z,100040.53
2022-12-29T01:30:06.796Z,100040.66
2022-12-29T01:32:37.324Z,100042.84
2022-12-29T01:35:07.789Z,100044.56
2022-12-29T01:37:37.731Z,100038.06
2022-12-29T01:40:08.293Z,100042.91
2022-12-29T01:42:38.258Z,100040.34
2022-12-29T01:45:18.681Z,100039.72
2022-12-29T01:48:11.098Z,100036.41
2022-12-29T01:50:54.216Z,100039.72
2022-12-29T01:53:36.116Z,100041.81
2022-12-29T01:56:15.799Z,100032.38
2022-12-29T01:58:57.233Z,100017.25
2022-12-29T02:01:27.723Z,100018.69
2022-12-29T02:03:55.905Z,100015.06
2022-12-29T02:06:34.432Z,100015.78
2022-12-29T02:09:03.401Z,100009.25
2022-12-29T02:11:32.856Z,100006.22
2022-12-29T02:14:03.853Z,100007.69
2022-12-29T02:17:05.302Z,100009.28
2022-12-29T02:20:15.169Z,99990.47
2022-12-29T02:23:25.183Z,99996.03
2022-12-29T02:27:14.711Z,99999.97
2022-12-29T02:29:59.139Z,99999.25
2022-12-29T02:32:43.869Z,99994.53
2022-12-29T02:36:08.584Z,100001.66
2022-12-29T02:39:16.442Z,99997.66
2022-12-29T02:42:29.675Z,99978.84
2022-12-29T02:45:46.585Z,99984.34
2022-12-29T02:48:46.945Z,99979.63
2022-12-29T02:51:40.844Z,99983.97
2022-12-29T02:54:30.251Z,99989.38
2022-12-29T02:57:00.241Z,99990.00
2022-12-29T02:59:31.131Z,99998.78
2022-12-29T03:02:53.972Z,99983.38
2022-12-29T03:06:29.798Z,99982.41
2022-12-29T03:09:38.497Z,99977.25
2022-12-29T03:12:50.569Z,99964.75
2022-12-29T03:16:01.984Z,99954.50
2022-12-29T03:18:38.534Z,99958.41
2022-12-29T03:21:44.340Z,99952.88
2022-12-29T03:24:18.666Z,99944.13
2022-12-29T03:26:56.184Z,99936.81
2022-12-29T03:29:34.310Z,99949.63
2022-12-29T03:32:09.964Z,99941.53
2022-12-29T03:34:41.146Z,99942.97
2022-12-29T03:37:27.124Z,99933.06
2022-12-29T03:39:58.515Z,99938.09
2022-12-29T03:42:36.790Z,99937.25
2022-12-29T03:45:10.203Z,99934.81
2022-12-29T03:47:40.405Z,99937.09
2022-12-29T03:50:14.490Z,99936.97
2022-12-29T03:52:44.473Z,99937.78
2022-12-29T03:55:14.595Z,99940.22
2022-12-29T03:57:44.638Z,99942.50
2022-12-29T04:00:15.668Z,99946.56
2022-12-29T04:02:45.992Z,99955.31
2022-12-29T04:05:16.150Z,99955.31
2022-12-29T04:07:46.257Z,99947.84
2022-12-29T04:10:16.367Z,99944.44
2022-12-29T04:12:47.697Z,99953.66
2022-12-29T04:15:18.414Z,99950.94
2022-12-29T04:17:48.451Z,99946.22
2022-12-29T04:20:35.792Z,99938.06
2022-12-29T04:23:08.415Z,99945.50
2022-12-29T04:25:37.276Z,99946.53
2022-12-29T04:28:06.402Z,99946.03
2022-12-29T04:30:34.242Z,99934.81
2022-12-29T04:33:02.805Z,99930.75
2022-12-29T04:35:31.222Z,99935.78
2022-12-29T04:37:59.617Z,99930.44
2022-12-29T04:40:28.453Z,99930.75
2022-12-29T04:42:57.023Z,99923.28
2022-12-29T04:45:24.895Z,99931.56
2022-12-29T04:47:53.332Z,99925.06
2022-12-29T04:50:21.752Z,99930.75
2022-12-29T04:52:50.197Z,99925.69
2022-12-29T04:55:18.689Z,99931.22
2022-12-29T04:57:47.393Z,99913.84
2022-12-29T05:00:15.862Z,99908.28
2022-12-29T05:02:44.001Z,99921.97
2022-12-29T05:05:12.781Z,99924.22
2022-12-29T05:07:41.478Z,99924.06
2022-12-29T05:10:10.270Z,99922.44
2022-12-29T05:12:39.541Z,99926.16
2022-12-29T05:15:12.170Z,99914.97
2022-12-29T05:17:42.248Z,99903.06
2022-12-29T05:20:13.017Z,99894.25
2022-12-29T05:22:43.113Z,99894.94
2022-12-29T05:25:13.175Z,99899.41
2022-12-29T05:27:43.194Z,99880.09
2022-12-29T05:30:13.887Z,99882.88
2022-12-29T05:32:44.585Z,99880.53
2022-12-29T05:35:14.724Z,99881.34
2022-12-29T05:37:44.881Z,99866.47
2022-12-29T05:40:14.930Z,99876.34
2022-12-29T05:42:45.050Z,99860.41
2022-12-29T05:45:15.164Z,99875.19
2022-12-29T05:47:45.340Z,99868.22
2022-12-29T05:50:15.458Z,99866.28
2022-12-29T05:52:46.161Z,99879.72
2022-12-29T05:55:16.355Z,99874.69
2022-12-29T05:57:46.592Z,99866.78
2022-12-29T06:00:17.229Z,99873.59
2022-12-29T06:02:47.502Z,99863.47
2022-12-29T06:05:17.990Z,99858.53
2022-12-29T06:07:48.179Z,99864.44
2022-12-29T06:10:18.790Z,99863.81
2022-12-29T06:12:49.082Z,99872.50
2022-12-29T06:15:18.697Z,99866.56
2022-12-29T06:17:48.749Z,99866.56
2022-12-29T06:20:17.351Z,99856.31
2022-12-29T06:22:46.437Z,99854.34
2022-12-29T06:25:14.071Z,99859.44
2022-12-29T06:27:43.432Z,99865.75
2022-12-29T06:30:13.253Z,99869.00
2022-12-29T06:32:43.495Z,99857.78
2022-12-29T06:35:13.602Z,99856.88
2022-12-29T06:37:44.378Z,99866.84
2022-12-29T06:40:14.530Z,99864.06
2022-12-29T06:42:44.727Z,99858.91
2022-12-29T06:45:12.979Z,99859.22
2022-12-29T06:47:41.372Z,99870.63
2022-12-29T06:50:10.226Z,99868.97
2022-12-29T06:52:38.309Z,99866.50
2022-12-29T06:55:07.282Z,99875.41
2022-12-29T06:57:35.108Z,99871.84
2022-12-29T07:00:06.091Z,99886.69
2022-12-29T07:02:34.991Z,99883.53
2022-12-29T07:05:03.354Z,99885.19
2022-12-29T07:07:31.754Z,99890.25
2022-12-29T07:10:00.107Z,99878.25
2022-12-29T07:12:28.540Z,99889.75
2022-12-29T07:14:56.922Z,99892.88
2022-12-29T07:17:25.350Z,99894.53
2022-12-29T07:19:53.728Z,99894.16
2022-12-29T07:22:22.286Z,99890.31
2022-12-29T07:24:50.638Z,99894.53
2022-12-29T07:27:19.029Z,99903.53
2022-12-29T07:29:47.596Z,99890.13
2022-12-29T07:32:16.171Z,99892.88
2022-12-29T07:34:46.382Z,99904.00
2022-12-29T07:37:17.784Z,99899.66
2022-12-29T07:39:48.225Z,99893.91
2022-12-29T07:42:18.488Z,99891.44
2022-12-29T07:44:48.630Z,99890.41
2022-12-29T07:47:18.687Z,99884.53
2022-12-29T07:49:48.761Z,99889.16
2022-12-29T07:52:18.746Z,99896.66
2022-12-29T07:54:48.788Z,99908.38
2022-12-29T07:57:18.815Z,99895.56
2022-12-29T07:59:48.822Z,99898.91
2022-12-29T08:02:18.974Z,99894.78
2022-12-29T08:04:49.129Z,99894.41
2022-12-29T08:07:19.194Z,99882.91
2022-12-29T08:09:49.210Z,99888.13
2022-12-29T08:12:22.218Z,99887.59
2022-12-29T08:14:52.243Z,99889.63
2022-12-29T08:17:22.520Z,99881.31
2022-12-29T08:19:52.534Z,99864.84
2022-12-29T08:22:22.643Z,99865.50
2022-12-29T08:24:53.107Z,99888.94
2022-12-29T08:27:23.381Z,99887.53
2022-12-29T08:29:53.734Z,99878.06
2022-12-29T08:32:23.762Z,99881.31
2022-12-29T08:34:54.052Z,99879.72
2022-12-29T08:37:30.720Z,99872.75
2022-12-29T08:39:59.774Z,99874.50
2022-12-29T08:42:32.055Z,99872.19
2022-12-29T08:45:02.569Z,99868.06
2022-12-29T08:47:32.642Z,99873.06
2022-12-29T08:50:02.819Z,99882.41
2022-12-29T08:52:32.516Z,99884.50
2022-12-29T08:55:02.280Z,99873.47
2022-12-29T08:57:32.163Z,99875.78
2022-12-29T09:00:03.796Z,99866.53
2022-12-29T09:02:32.655Z,99863.28
2022-12-29T09:05:02.605Z,99871.13
2022-12-29T09:07:32.590Z,99873.81
2022-12-29T09:10:02.846Z,99870.28
2022-12-29T09:12:36.331Z,99875.16
2022-12-29T09:15:08.149Z,99880.38
2022-12-29T09:17:46.459Z,99888.41
2022-12-29T09:20:20.141Z,99882.00
2022-12-29T09:22:50.438Z,99877.72
2022-12-29T09:25:20.952Z,99868.31
2022-12-29T09:27:54.261Z,99885.63
2022-12-29T09:30:25.407Z,99883.53
2022-12-29T09:32:55.663Z,99872.16
2022-12-29T09:35:23.775Z,99873.38
2022-12-29T09:37:55.863Z,99865.75
2022-12-29T09:40:33.867Z,99856.78
2022-12-29T09:43:28.448Z,99859.09
2022-12-29T09:46:15.423Z,99835.06
2022-12-29T09:49:05.149Z,99843.19
2022-12-29T09:51:43.233Z,99842.28
2022-12-29T09:54:36.714Z,99840.16
2022-12-29T09:57:47.181Z,99829.31
2022-12-29T10:00:23.485Z,99854.94
2022-12-29T10:03:16.440Z,99835.44
2022-12-29T10:06:13.945Z,99846.22
2022-12-29T10:09:31.466Z,99835.63
2022-12-29T10:12:31.616Z,99833.78
2022-12-29T10:15:46.557Z,99865.53
2022-12-29T10:19:11.732Z,99848.00
2022-12-29T10:22:50.114Z,99852.41
2022-12-29T10:25:31.074Z,99831.84
2022-12-29T10:28:56.341Z,99837.25
2022-12-29T10:32:03.752Z,99841.28
2022-12-29T10:34:51.035Z,99841.44
2022-12-29T10:37:58.549Z,99839.78
2022-12-29T10:41:01.489Z,99833.44
2022-12-29T10:43:58.492Z,99836.72
2022-12-29T10:46:39.060Z,99826.78
2022-12-29T10:49:21.878Z,99833.94
2022-12-29T10:52:01.413Z,99834.84
2022-12-29T10:55:00.107Z,99834.53
2022-12-29T10:57:40.842Z,99848.59
2022-12-29T11:00:22.133Z,99826.50
2022-12-29T11:04:01.265Z,99841.84
2022-12-29T11:06:31.514Z,99840.19
2022-12-29T11:09:32.466Z,99851.53
2022-12-29T11:12:30.427Z,99848.69
2022-12-29T11:15:09.710Z,99845.00
2022-12-29T11:17:57.777Z,99847.66
2022-12-29T11:20:39.531Z,99847.91
2022-12-29T11:23:41.221Z,99847.25
2022-12-29T11:26:34.125Z,99850.34
2022-12-29T11:29:17.644Z,99855.94
2022-12-29T11:31:56.538Z,99863.44
2022-12-29T11:34:35.736Z,99864.44
2022-12-29T11:37:35.571Z,99868.38
2022-12-29T11:40:20.152Z,99865.69
2022-12-29T11:43:04.805Z,99869.47
2022-12-29T11:45:38.339Z,99864.28
2022-12-29T11:48:20.849Z,99877.72
2022-12-29T11:51:01.964Z,99866.97
2022-12-29T11:53:50.498Z,99865.31
2022-12-29T11:56:40.111Z,99866.28
2022-12-29T11:59:28.709Z,99857.34
2022-12-29T12:02:04.370Z,99863.50
2022-12-29T12:04:39.653Z,99869.38
2022-12-29T12:07:40.939Z,99883.63
2022-12-29T12:10:43.445Z,99894.75
2022-12-29T12:13:51.249Z,99905.22
2022-12-29T12:16:42.655Z,99892.06
2022-12-29T12:19:49.210Z,99889.06
2022-12-29T12:22:38.449Z,99884.34
2022-12-29T12:25:24.495Z,99872.81
2022-12-29T12:28:14.655Z,99877.63
2022-12-29T12:30:58.048Z,99871.44
2022-12-29T12:33:45.313Z,99866.56
2022-12-29T12:37:08.166Z,99856.88
2022-12-29T12:40:00.701Z,99857.56
2022-12-29T12:43:04.674Z,99862.09
2022-12-29T12:46:28.650Z,99857.53
2022-12-29T12:49:39.564Z,99854.44
2022-12-29T12:52:31.321Z,99849.13
2022-12-29T12:55:39.117Z,99846.03
2022-12-29T12:58:42.690Z,99849.22
2022-12-29T13:01:30.455Z,99860.88
2022-12-29T13:04:19.020Z,99856.47
2022-12-29T13:07:22.193Z,99848.94
2022-12-29T13:10:37.498Z,99857.06
2022-12-29T13:14:08.331Z,99854.16
2022-12-29T13:17:37.883Z,99873.22
2022-12-29T13:20:53.466Z,99871.50
2022-12-29T13:23:56.306Z,99865.44
2022-12-29T13:26:42.198Z,99874.94
2022-12-29T13:29:31.167Z,99858.81
2022-12-29T13:32:26.214Z,99868.50
2022-12-29T13:35:17.767Z,99866.41
2022-12-29T13:38:10.318Z,99861.56
2022-12-29T13:40:53.177Z,99859.44
2022-12-29T13:43:29.668Z,99863.66
2022-12-29T13:46:28.181Z,99857.16
2022-12-29T13:49:20.794Z,99868.31
2022-12-29T13:51:58.997Z,99869.97
2022-12-29T13:55:23.848Z,99874.66
2022-12-29T13:58:14.440Z,99869.38
2022-12-29T14:01:01.182Z,99866.66
2022-12-29T14:03:54.934Z,99872.91
2022-12-29T14:06:41.382Z,99884.66
2022-12-29T14:09:44.037Z,99883.25
2022-12-29T14:12:43.025Z,99879.53
2022-12-29T14:15:12.930Z,99882.00
2022-12-29T14:17:42.797Z,99884.72
2022-12-29T14:20:24.422Z,99885.66
2022-12-29T14:23:35.683Z,99886.59
2022-12-29T14:26:07.842Z,99881.41
2022-12-29T14:28:48.296Z,99888.38
2022-12-29T14:31:16.014Z,99885.78
2022-12-29T14:34:07.601Z,99896.19
2022-12-29T14:37:05.163Z,99895.44
2022-12-29T14:39:45.880Z,99902.03
2022-12-29T14:42:23.854Z,99904.34
2022-12-29T14:45:03.588Z,99910.66
2022-12-29T14:48:01.123Z,99916.06
2022-12-29T14:55:16.805Z,99918.84
2022-12-29T14:58:02.097Z,99927.97
2022-12-29T15:00:38.336Z,99937.09
2022-12-29T15:03:24.327Z,99935.94
2022-12-29T15:06:09.502Z,99923.63
2022-12-29T15:09:00.111Z,99919.75
2022-12-29T15:11:53.023Z,99930.00
2022-12-29T15:14:38.494Z,99933.91
2022-12-29T15:17:35.626Z,99949.56
2022-12-29T15:20:29.860Z,99948.03
2022-12-29T15:23:19.601Z,99962.53
2022-12-29T15:26:03.497Z,99966.84
2022-12-29T15:28:47.804Z,99967.25
2022-12-29T15:31:30.633Z,99970.03
2022-12-29T15:34:13.688Z,99974.47
2022-12-29T15:36:44.441Z,99974.16
2022-12-29T15:39:27.599Z,99970.56
2022-12-29T15:42:20.740Z,99977.72
2022-12-29T15:44:57.917Z,99969.94
2022-12-29T15:47:35.600Z,99980.81
2022-12-29T15:50:28.372Z,99976.28
2022-12-29T15:53:00.139Z,99982.09
2022-12-29T15:55:42.483Z,99989.72
2022-12-29T15:58:30.614Z,99994.41
2022-12-29T16:01:03.040Z,99991.78
2022-12-29T16:03:38.522Z,99997.13
2022-12-29T16:06:38.805Z,100009.34
2022-12-29T16:09:37.683Z,100009.38
2022-12-29T16:12:26.042Z,100004.19
2022-12-29T16:15:04.212Z,100011.53
2022-12-29T16:17:55.021Z,100015.44
2022-12-29T16:20:41.373Z,100023.41
2022-12-29T16:23:28.593Z,100024.69
2022-12-29T16:25:59.992Z,100022.56
2022-12-29T16:28:45.762Z,100027.28
2022-12-29T16:31:24.920Z,100034.97
2022-12-29T16:33:57.449Z,100031.41
2022-12-29T16:36:42.162Z,100031.22
2022-12-29T16:39:40.574Z,100033.81
2022-12-29T16:42:51.841Z,100035.44
2022-12-29T16:45:22.567Z,100045.50
2022-12-29T16:48:07.726Z,100041.41
2022-12-29T16:50:41.924Z,100043.38
2022-12-29T16:53:49.975Z,100047.31
2022-12-29T16:56:29.907Z,100044.72
2022-12-29T16:59:33.402Z,100039.84
2022-12-29T17:02:16.239Z,100053.50
2022-12-29T17:04:49.528Z,100060.63
2022-12-29T17:07:25.648Z,100065.00
2022-12-29T17:09:56.073Z,100061.94
2022-12-29T17:12:31.470Z,100061.78
2022-12-29T17:15:35.209Z,100072.34
2022-12-29T17:18:11.732Z,100078.31
2022-12-29T17:20:43.574Z,100074.44
2022-12-29T17:23:22.760Z,100081.94
2022-12-29T17:25:56.691Z,100069.94
2022-12-29T17:28:32.961Z,100067.47
2022-12-29T17:31:07.787Z,100067.59
2022-12-29T17:33:42.858Z,100073.47
2022-12-29T17:36:12.743Z,100071.69
2022-12-29T17:38:41.981Z,100081.13
2022-12-29T17:41:15.488Z,100079.50
2022-12-29T17:43:45.525Z,100079.31
2022-12-29T17:46:15.272Z,100075.94
2022-12-29T17:48:49.725Z,100074.13
2022-12-29T17:51:23.294Z,100066.50
2022-12-29T17:53:52.224Z,100071.06
2022-12-29T17:56:19.574Z,100071.06
2022-12-29T17:58:50.373Z,100074.97
2022-12-29T18:01:21.898Z,100080.97
2022-12-29T18:03:52.298Z,100080.97
2022-12-29T18:06:21.852Z,100078.50
2022-12-29T18:08:51.799Z,100077.53
2022-12-29T18:11:28.193Z,100067.75
2022-12-29T18:13:57.184Z,100078.47
2022-12-29T18:16:28.079Z,100079.78
2022-12-29T18:18:57.344Z,100086.56
2022-12-29T18:21:27.537Z,100092.09
2022-12-29T18:23:57.225Z,100090.06
2022-12-29T18:26:35.688Z,100089.06
2022-12-29T18:29:04.783Z,100100.22
2022-12-29T18:31:36.703Z,100115.03
2022-12-29T18:34:15.586Z,100109.28
2022-12-29T18:36:45.722Z,100117.44
2022-12-29T18:39:15.277Z,100110.72
2022-12-29T18:41:45.121Z,100110.28
2022-12-29T18:44:14.949Z,100117.94
2022-12-29T18:46:44.819Z,100110.00
2022-12-29T18:49:13.336Z,100111.91
2022-12-29T18:51:41.767Z,100120.81
2022-12-29T18:54:30.573Z,100116.22
2022-12-29T18:57:00.879Z,100114.84
2022-12-29T18:59:30.906Z,100121.84
2022-12-29T19:02:00.937Z,100120.81
2022-12-29T19:04:31.011Z,100120.31
2022-12-29T19:07:01.096Z,100125.00
2022-12-29T19:09:31.112Z,100128.06
2022-12-29T19:12:01.118Z,100127.47
2022-12-29T19:14:31.226Z,100125.31
2022-12-29T19:16:59.607Z,100129.97
2022-12-29T19:19:28.039Z,100123.94
2022-12-29T19:21:58.165Z,100123.50
2022-12-29T19:24:27.935Z,100128.38
2022-12-29T19:26:56.612Z,100137.13
2022-12-29T19:29:24.986Z,100147.00
2022-12-29T19:31:53.426Z,100143.13
2022-12-29T19:34:21.987Z,100145.97
2022-12-29T19:36:50.381Z,100150.94
2022-12-29T19:39:19.027Z,100146.31
2022-12-29T19:41:47.171Z,100145.31
2022-12-29T19:44:17.341Z,100154.09
2022-12-29T19:46:47.780Z,100139.66
2022-12-29T19:49:17.805Z,100151.19
2022-12-29T19:51:47.853Z,100150.69
2022-12-29T19:54:17.877Z,100147.69
2022-12-29T19:56:48.235Z,100161.09
2022-12-29T19:59:18.304Z,100155.06
2022-12-29T20:01:48.987Z,100153.75
2022-12-29T20:04:16.736Z,100152.13
2022-12-29T20:06:45.289Z,100149.66
2022-12-29T20:09:13.534Z,100157.09
2022-12-29T20:11:42.002Z,100152.22
2022-12-29T20:14:10.434Z,100150.09
2022-12-29T20:17:02.408Z,100161.00
2022-12-29T20:19:26.357Z,100142.06
2022-12-29T20:21:56.687Z,100146.81
2022-12-29T20:24:27.023Z,100150.16
2022-12-29T20:26:57.675Z,100157.66
2022-12-29T20:29:27.854Z,100156.50
2022-12-29T20:31:57.959Z,100154.50
2022-12-29T20:34:28.010Z,100147.31
2022-12-29T20:36:58.083Z,100158.03
2022-12-29T20:39:28.245Z,100161.19
2022-12-29T20:41:59.912Z,100170.47
2022-12-29T20:44:32.491Z,100163.63
2022-12-29T20:47:03.709Z,100161.84
2022-12-29T20:49:35.419Z,100165.28
2022-12-29T20:52:07.196Z,100158.25
2022-12-29T20:54:39.827Z,100160.16
2022-12-29T20:57:10.164Z,100158.53
2022-12-29T20:59:40.242Z,100160.06
2022-12-29T21:02:23.925Z,100166.13
2022-12-29T21:07:44.755Z,100166.63
2022-12-29T21:10:15.899Z,100159.13
2022-12-29T21:12:43.464Z,100157.81
2022-12-29T21:15:14.412Z,100169.06
2022-12-29T21:17:46.821Z,100168.56
2022-12-29T21:20:30.051Z,100161.34
2022-12-29T21:23:02.874Z,100161.25
2022-12-29T21:25:37.423Z,100156.63
2022-12-29T21:28:12.354Z,100156.91
2022-12-29T21:30:42.728Z,100172.13
2022-12-29T21:33:12.794Z,100171.53
2022-12-29T21:35:41.389Z,100173.03
2022-12-29T21:38:10.005Z,100184.47
2022-12-29T21:40:40.866Z,100194.69
2022-12-29T21:43:12.454Z,100191.38
2022-12-29T21:45:42.512Z,100195.28
2022-12-29T21:48:21.641Z,100196.03
2022-12-29T21:51:16.611Z,100196.72
2022-12-29T21:53:46.051Z,100196.41
2022-12-29T21:56:21.363Z,100197.09
2022-12-29T21:59:10.091Z,100204.88
2022-12-29T22:01:58.771Z,100206.13
2022-12-29T22:04:47.598Z,100208.28
2022-12-29T22:07:36.305Z,100198.50
2022-12-29T22:10:26.094Z,100192.75
2022-12-29T22:13:00.069Z,100205.50
2022-12-29T22:15:37.546Z,100203.09
2022-12-29T22:18:07.739Z,100201.16
2022-12-29T22:20:37.916Z,100202.00
2022-12-29T22:23:07.963Z,100191.16
2022-12-29T22:25:40.951Z,100195.44
2022-12-29T22:28:11.731Z,100193.59
2022-12-29T22:30:41.968Z,100191.16
2022-12-29T22:33:12.088Z,100201.03
2022-12-29T22:35:42.176Z,100201.25
2022-12-29T22:38:10.654Z,100204.41
2022-12-29T22:40:39.128Z,100212.09
2022-12-29T22:43:12.892Z,100211.56
2022-12-29T22:45:43.455Z,100210.22
2022-12-29T22:48:13.551Z,100219.75
2022-12-29T22:50:43.558Z,100217.06
2022-12-29T22:53:13.571Z,100220.25
2022-12-29T22:55:43.554Z,100228.00
2022-12-29T22:58:13.593Z,100235.63
2022-12-29T23:00:43.600Z,100233.50
2022-12-29T23:03:13.912Z,100233.78
2022-12-29T23:05:44.054Z,100238.28
2022-12-29T23:08:14.048Z,100250.78
2022-12-29T23:10:44.111Z,100245.34
2022-12-29T23:13:14.134Z,100247.91
2022-12-29T23:15:44.303Z,100247.63
2022-12-29T23:18:15.297Z,100246.44
2022-12-29T23:20:47.727Z,100256.75
2022-12-29T23:23:41.823Z,100252.97
2022-12-29T23:26:15.875Z,100253.28
2022-12-29T23:28:44.399Z,100256.97
2022-12-29T23:31:12.841Z,100256.03
2022-12-29T23:33:40.815Z,100261.38
2022-12-29T23:36:10.552Z,100260.53
2022-12-29T23:38:40.975Z,100261.44
2022-12-29T23:41:12.058Z,100265.53
2022-12-29T23:43:42.167Z,100264.94
2022-12-29T23:46:18.936Z,100266.97
2022-12-29T23:48:49.513Z,100271.97
2022-12-29T23:51:20.064Z,100273.41
2022-12-29T23:53:50.167Z,100282.47
2022-12-29T23:56:23.657Z,100283.00
2022-12-29T23:58:54.945Z,100280.94
